Startpagina
METAR-TAF:

METAR-TAF

Vliegvelden :

Diego Garcia, Brits Indische Oceaanterritorium

breedte: 07-18S, lengte: 072-24E, hoogte: 1 m

Actueel weer

Dit bericht is 1 uur en het 13 minuten geleden gemaakt, om 02:55 UTC
Wind 13 kt uit het zuidoosten
Temperatuur 29°C
Vochtigheid 84%
Druk 1013 hPa
Zicht 10 km of meer
Weinig wolken op 2000 ft
Weinig wolken op 8000 ft
Verspreide wolken op 25000 ft

METAR: FJDG 130255Z 14013KT 9999 FEW020 FEW080 SCT250 29/26 A2992 RMK SLP129 8/131 T02940261

Tijdstip: 10:08 (04:08 UTC)

Verwachting

Dit bericht is 3 uur en het 5 minuten geleden gemaakt, om 01:03 UTC
Verwachting geldig van 13 om 01 UTC tot 14 om 07 UTC
Wind 15 kt uit het zuidzuidoosten
Zicht 10 km of meer
Weinig wolken op 2000 ft
Verspreide wolken op 5000 ft
Gebroken wolken op 10000 ft

TAF: FJDG 130103Z 1301/1407 15015KT 9999 FEW020 SCT050 BKN100 QNH2984INS TX34/1313Z TN25/1323Z

Waarnemingen en weersverwachtingen van meer dan 4000 vliegvelden (METAR en TAF).

De beschikbare stations zijn de gele en rode punten op de kaart.

Ga met uw muis naar het station om de naam te zien.

Klik dan om waarnemingen en weersverwachtingen te zien.

kaart wijzigen: klik op de groene knoppen met een zwart kruis om in te zoomen, op de groene knop met een streepje om uit te zoomen of op de groene pijlen voor aangrenzende kaarten.


METAR-TAF: